createdAt,value
2023-05-24T00:02:27.292Z,100600.41
2023-05-24T00:05:00.905Z,100599.25
2023-05-24T00:07:29.213Z,100595.88
2023-05-24T00:09:57.242Z,100599.31
2023-05-24T00:12:25.783Z,100600.03
2023-05-24T00:14:53.629Z,100595.88
2023-05-24T00:17:24.558Z,100594.13
2023-05-24T00:19:53.506Z,100591.72
2023-05-24T00:22:23.104Z,100583.94
2023-05-24T00:24:50.970Z,100585.56
2023-05-24T00:27:19.081Z,100577.88
2023-05-24T00:29:46.965Z,100582.22
2023-05-24T00:32:14.987Z,100578.13
2023-05-24T00:34:43.092Z,100570.13
2023-05-24T00:37:13.027Z,100573.28
2023-05-24T00:39:42.423Z,100580.34
2023-05-24T00:42:11.105Z,100577.16
2023-05-24T00:44:39.154Z,100578.47
2023-05-24T00:47:07.699Z,100575.16
2023-05-24T00:49:35.994Z,100575.16
2023-05-24T00:52:04.364Z,100581.91
2023-05-24T00:54:33.464Z,100580.44
2023-05-24T00:57:02.726Z,100585.25
2023-05-24T00:59:31.194Z,100581.41
2023-05-24T01:01:59.251Z,100583.94
2023-05-24T01:04:28.192Z,100581.69
2023-05-24T01:07:06.066Z,100585.72
2023-05-24T01:09:35.744Z,100580.56
2023-05-24T01:12:16.655Z,100587.06
2023-05-24T01:14:47.993Z,100591.09
2023-05-24T01:17:19.595Z,100588.22
2023-05-24T01:19:52.467Z,100589.78
2023-05-24T01:22:42.329Z,100592.66
2023-05-24T01:25:14.632Z,100589.25
2023-05-24T01:27:44.763Z,100598.78
2023-05-24T01:30:13.162Z,100588.81
2023-05-24T01:32:44.097Z,100591.41
2023-05-24T01:35:14.808Z,100591.53
2023-05-24T01:37:42.673Z,100586.78
2023-05-24T01:40:11.350Z,100588.25
2023-05-24T01:42:45.748Z,100585.16
2023-05-24T01:45:17.625Z,100579.75
2023-05-24T01:47:52.819Z,100584.84
2023-05-24T01:50:25.722Z,100585.81
2023-05-24T01:52:54.754Z,100583.31
2023-05-24T01:55:22.855Z,100585.66
2023-05-24T01:57:51.894Z,100580.72
2023-05-24T02:00:22.490Z,100581.84
2023-05-24T02:02:50.887Z,100581.19
2023-05-24T02:05:20.125Z,100585.94
2023-05-24T02:07:48.603Z,100584.22
2023-05-24T02:10:16.650Z,100584.06
2023-05-24T02:12:45.327Z,100580.56
2023-05-24T02:15:15.128Z,100588.56
2023-05-24T02:17:46.128Z,100591.44
2023-05-24T02:20:14.685Z,100592.13
2023-05-24T02:22:42.705Z,100588.50
2023-05-24T02:25:10.549Z,100588.19
2023-05-24T02:27:38.315Z,100586.53
2023-05-24T02:30:07.107Z,100592.97
2023-05-24T02:32:35.178Z,100588.63
2023-05-24T02:35:05.305Z,100592.19
2023-05-24T02:37:33.171Z,100599.97
2023-05-24T02:40:01.817Z,100604.19
2023-05-24T02:42:29.816Z,100597.97
2023-05-24T02:44:58.008Z,100598.38
2023-05-24T02:47:27.335Z,100600.28
2023-05-24T02:49:55.340Z,100604.78
2023-05-24T02:52:24.478Z,100598.56
2023-05-24T02:54:52.221Z,100592.97
2023-05-24T02:57:25.253Z,100590.31
2023-05-24T02:59:54.339Z,100587.00
2023-05-24T03:02:23.551Z,100585.47
2023-05-24T03:04:51.588Z,100590.34
2023-05-24T03:07:20.598Z,100583.56
2023-05-24T03:09:49.999Z,100583.66
2023-05-24T03:12:18.783Z,100588.50
2023-05-24T03:14:46.385Z,100582.78
2023-05-24T03:17:14.279Z,100588.94
2023-05-24T03:19:42.185Z,100596.72
2023-05-24T03:22:10.485Z,100594.19
2023-05-24T03:24:39.176Z,100594.47
2023-05-24T03:27:08.951Z,100592.66
2023-05-24T03:29:36.515Z,100590.47
2023-05-24T03:32:04.726Z,100591.59
2023-05-24T03:34:32.757Z,100601.00
2023-05-24T03:37:00.911Z,100598.56
2023-05-24T03:39:29.129Z,100601.16
2023-05-24T03:42:11.389Z,100594.00
2023-05-24T03:44:42.746Z,100596.34
2023-05-24T03:47:13.753Z,100595.63
2023-05-24T03:49:41.512Z,100594.41
2023-05-24T03:52:09.598Z,100601.03
2023-05-24T03:54:37.530Z,100610.75
2023-05-24T03:57:06.734Z,100607.06
2023-05-24T03:59:41.524Z,100605.84
2023-05-24T04:02:09.673Z,100606.75
2023-05-24T04:04:37.951Z,100614.84
2023-05-24T04:07:06.184Z,100606.84
2023-05-24T04:09:33.969Z,100619.22
2023-05-24T04:12:03.779Z,100607.50
2023-05-24T04:14:31.575Z,100610.94
2023-05-24T04:17:02.408Z,100612.75
2023-05-24T04:19:30.318Z,100610.34
2023-05-24T04:21:58.340Z,100615.09
2023-05-24T04:24:26.324Z,100613.06
2023-05-24T04:26:54.308Z,100611.47
2023-05-24T04:29:22.428Z,100618.00
2023-05-24T04:31:51.394Z,100598.22
2023-05-24T04:34:22.435Z,100615.09
2023-05-24T04:36:53.240Z,100625.22
2023-05-24T04:39:21.820Z,100623.34
2023-05-24T04:41:51.044Z,100625.00
2023-05-24T04:44:18.884Z,100627.91
2023-05-24T04:46:46.803Z,100627.16
2023-05-24T04:49:16.117Z,100633.78
2023-05-24T04:51:45.973Z,100637.41
2023-05-24T04:54:13.885Z,100637.59
2023-05-24T04:56:41.949Z,100632.09
2023-05-24T04:59:10.631Z,100629.81
2023-05-24T05:01:38.794Z,100631.00
2023-05-24T05:04:07.625Z,100633.06
2023-05-24T05:06:39.013Z,100637.94
2023-05-24T05:09:10.595Z,100637.78
2023-05-24T05:11:39.158Z,100639.16
2023-05-24T05:14:09.936Z,100639.63
2023-05-24T05:16:39.547Z,100645.53
2023-05-24T05:19:07.646Z,100651.97
2023-05-24T05:21:36.444Z,100650.88
2023-05-24T05:24:04.702Z,100651.72
2023-05-24T05:26:34.681Z,100649.09
2023-05-24T05:29:04.683Z,100655.84
2023-05-24T05:31:33.236Z,100650.06
2023-05-24T05:34:02.161Z,100651.97
2023-05-24T05:36:30.077Z,100658.00
2023-05-24T05:38:58.018Z,100657.19
2023-05-24T05:41:26.480Z,100660.28
2023-05-24T05:43:56.689Z,100664.25
2023-05-24T05:46:24.829Z,100658.84
2023-05-24T05:48:52.660Z,100670.22
2023-05-24T05:51:20.573Z,100673.03
2023-05-24T05:53:48.866Z,100667.50
2023-05-24T05:56:17.060Z,100674.19
2023-05-24T05:58:45.078Z,100675.91
2023-05-24T06:01:17.169Z,100678.97
2023-05-24T06:03:46.107Z,100684.19
2023-05-24T06:06:14.625Z,100678.97
2023-05-24T06:08:42.501Z,100674.09
2023-05-24T06:11:10.521Z,100692.72
2023-05-24T06:13:38.397Z,100683.69
2023-05-24T06:16:08.550Z,100690.13
2023-05-24T06:18:38.897Z,100690.31
2023-05-24T06:21:32.549Z,100682.97
2023-05-24T06:24:10.361Z,100674.31
2023-05-24T06:26:38.319Z,100680.09
2023-05-24T06:29:07.546Z,100688.84
2023-05-24T06:31:35.638Z,100692.00
2023-05-24T06:34:05.078Z,100692.22
2023-05-24T06:36:34.225Z,100693.84
2023-05-24T06:39:02.536Z,100696.78
2023-05-24T06:41:30.600Z,100703.59
2023-05-24T06:43:59.732Z,100699.97
2023-05-24T06:46:28.636Z,100695.75
2023-05-24T06:48:57.736Z,100702.09
2023-05-24T06:51:27.215Z,100701.63
2023-05-24T06:53:55.448Z,100700.59
2023-05-24T06:56:25.811Z,100690.06
2023-05-24T06:58:54.467Z,100692.28
2023-05-24T07:01:23.695Z,100698.94
2023-05-24T07:03:53.226Z,100687.97
2023-05-24T07:06:22.162Z,100691.16
2023-05-24T07:08:51.423Z,100695.34
2023-05-24T07:11:19.597Z,100692.22
2023-05-24T07:13:47.624Z,100691.75
2023-05-24T07:16:16.700Z,100696.72
2023-05-24T07:18:44.674Z,100701.19
2023-05-24T07:21:15.141Z,100696.09
2023-05-24T07:23:43.086Z,100698.19
2023-05-24T07:26:12.749Z,100697.75
2023-05-24T07:28:41.633Z,100695.94
2023-05-24T07:31:10.310Z,100688.81
2023-05-24T07:33:38.798Z,100684.47
2023-05-24T07:36:07.650Z,100703.97
2023-05-24T07:38:36.288Z,100695.63
2023-05-24T07:41:04.783Z,100703.25
2023-05-24T07:43:34.188Z,100710.41
2023-05-24T07:46:01.996Z,100721.44
2023-05-24T07:48:30.605Z,100705.88
2023-05-24T07:50:58.703Z,100719.63
2023-05-24T07:53:26.580Z,100725.63
2023-05-24T07:55:54.413Z,100728.53
2023-05-24T07:58:22.448Z,100721.88
2023-05-24T08:00:52.413Z,100722.03
2023-05-24T08:03:20.793Z,100738.94
2023-05-24T08:05:50.088Z,100721.72
2023-05-24T08:08:18.463Z,100725.44
2023-05-24T08:10:46.200Z,100728.00
2023-05-24T08:13:14.310Z,100723.91
2023-05-24T08:15:42.477Z,100729.66
2023-05-24T08:18:12.130Z,100720.66
2023-05-24T08:20:41.132Z,100732.50
2023-05-24T08:23:09.159Z,100729.94
2023-05-24T08:25:36.990Z,100738.91
2023-05-24T08:28:05.363Z,100720.84
2023-05-24T08:30:33.711Z,100731.13
2023-05-24T08:33:02.115Z,100738.19
2023-05-24T08:35:32.864Z,100727.03
2023-05-24T08:38:01.079Z,100727.97
2023-05-24T08:40:29.220Z,100723.16
2023-05-24T08:43:00.565Z,100732.19
2023-05-24T08:45:31.600Z,100724.28
2023-05-24T08:48:01.092Z,100719.09
2023-05-24T08:50:29.933Z,100716.69
2023-05-24T08:53:00.890Z,100713.97
2023-05-24T08:55:33.075Z,100714.78
2023-05-24T08:58:02.821Z,100717.00
2023-05-24T09:00:30.783Z,100724.84
2023-05-24T09:03:00.475Z,100727.66
2023-05-24T09:05:30.504Z,100711.69
2023-05-24T09:08:01.105Z,100722.00
2023-05-24T09:10:41.164Z,100723.84
2023-05-24T09:13:16.377Z,100721.50
2023-05-24T09:15:44.653Z,100722.44
2023-05-24T09:18:12.802Z,100717.28
2023-05-24T09:20:41.276Z,100737.63
2023-05-24T09:23:22.105Z,100729.97
2023-05-24T09:25:50.489Z,100722.91
2023-05-24T09:28:19.084Z,100735.00
2023-05-24T09:30:50.402Z,100727.41
2023-05-24T09:33:18.264Z,100725.06
2023-05-24T09:35:47.422Z,100718.91
2023-05-24T09:38:20.433Z,100733.00
2023-05-24T09:40:48.778Z,100733.69
2023-05-24T09:43:16.912Z,100727.59
2023-05-24T09:45:46.766Z,100730.00
2023-05-24T09:48:16.591Z,100715.16
2023-05-24T09:50:45.937Z,100718.44
2023-05-24T09:53:14.077Z,100715.75
2023-05-24T09:55:45.704Z,100709.44
2023-05-24T09:58:15.288Z,100709.09
2023-05-24T10:00:43.767Z,100710.88
2023-05-24T10:03:13.299Z,100709.69
2023-05-24T10:05:43.606Z,100707.00
2023-05-24T10:08:14.841Z,100689.53
2023-05-24T10:10:45.342Z,100704.09
2023-05-24T10:13:16.040Z,100695.25
2023-05-24T10:15:44.787Z,100706.34
2023-05-24T10:18:14.375Z,100700.16
2023-05-24T10:20:44.090Z,100701.63
2023-05-24T10:23:19.362Z,100709.44
2023-05-24T10:25:51.580Z,100704.38
2023-05-24T10:28:21.553Z,100697.34
2023-05-24T10:30:52.819Z,100706.28
2023-05-24T10:33:21.362Z,100699.63
2023-05-24T10:35:50.372Z,100700.56
2023-05-24T10:38:18.843Z,100698.38
2023-05-24T10:40:50.321Z,100695.47
2023-05-24T10:43:19.312Z,100687.38
2023-05-24T10:51:51.051Z,100691.63
2023-05-24T10:54:29.049Z,100695.13
2023-05-24T11:03:32.680Z,100674.34
2023-05-24T11:08:49.174Z,100679.78
2023-05-24T11:28:39.352Z,100658.44
2023-05-24T11:32:06.643Z,100660.09
2023-05-24T11:35:08.690Z,100658.34
2023-05-24T11:37:47.805Z,100659.06
2023-05-24T11:40:25.601Z,100660.63
2023-05-24T11:43:32.851Z,100655.81
2023-05-24T11:46:07.440Z,100664.19
2023-05-24T11:54:31.513Z,100654.09
2023-05-24T12:02:46.774Z,100655.38
2023-05-24T12:05:38.886Z,100651.53
2023-05-24T12:08:27.869Z,100644.81
2023-05-24T12:11:13.843Z,100637.38
2023-05-24T12:19:38.246Z,100632.00
2023-05-24T12:22:18.560Z,100645.31
2023-05-24T12:25:03.090Z,100637.97
2023-05-24T12:27:45.427Z,100633.09
2023-05-24T12:30:25.465Z,100643.53
2023-05-24T12:47:43.322Z,100634.59
2023-05-24T12:50:15.559Z,100636.50
2023-05-24T12:52:53.342Z,100621.78
2023-05-24T12:58:27.700Z,100615.94
2023-05-24T13:01:04.601Z,100613.66
2023-05-24T13:14:52.064Z,100605.25
2023-05-24T13:17:30.154Z,100599.97
2023-05-24T13:20:04.801Z,100588.56
2023-05-24T13:22:33.035Z,100604.25
2023-05-24T13:28:09.702Z,100584.28
2023-05-24T13:30:40.506Z,100594.41
2023-05-24T13:33:11.660Z,100583.78
2023-05-24T13:35:44.195Z,100592.72
2023-05-24T13:38:20.369Z,100583.09
2023-05-24T13:40:50.504Z,100594.53
2023-05-24T13:43:36.144Z,100590.22
2023-05-24T13:48:52.457Z,100586.81
2023-05-24T13:51:30.978Z,100597.47
2023-05-24T13:53:59.884Z,100607.28
2023-05-24T13:56:41.711Z,100597.75
2023-05-24T13:59:31.542Z,100604.22
2023-05-24T14:02:07.351Z,100590.75
2023-05-24T14:05:08.606Z,100589.38
2023-05-24T14:07:47.772Z,100592.22
2023-05-24T14:14:13.832Z,100591.47
2023-05-24T14:19:23.829Z,100587.16
2023-05-24T14:21:59.804Z,100592.19
2023-05-24T14:24:31.747Z,100595.06
2023-05-24T14:27:18.020Z,100595.03
2023-05-24T14:30:23.921Z,100585.81
2023-05-24T14:33:23.881Z,100601.63
2023-05-24T14:41:29.052Z,100592.56
2023-05-24T14:44:04.164Z,100587.28
2023-05-24T14:46:34.811Z,100578.97
2023-05-24T14:49:16.257Z,100585.22
2023-05-24T15:01:25.000Z,100581.91
2023-05-24T15:04:22.157Z,100573.75
2023-05-24T15:09:43.794Z,100568.00
2023-05-24T15:12:23.961Z,100571.22
2023-05-24T15:20:26.577Z,100570.13
2023-05-24T15:31:45.193Z,100567.50
2023-05-24T15:34:23.436Z,100568.56
2023-05-24T15:40:37.162Z,100567.69
2023-05-24T15:54:47.343Z,100558.47
2023-05-24T15:57:30.085Z,100557.69
2023-05-24T16:17:50.070Z,100556.53
2023-05-24T16:20:27.784Z,100555.81
2023-05-24T16:25:48.186Z,100564.03
2023-05-24T16:28:17.288Z,100561.13
2023-05-24T16:30:59.756Z,100550.75
2023-05-24T16:37:02.518Z,100557.88
2023-05-24T16:42:27.716Z,100558.53
2023-05-24T16:44:57.357Z,100553.41
2023-05-24T16:47:29.592Z,100545.53
2023-05-24T16:53:25.249Z,100549.41
2023-05-24T16:59:04.203Z,100554.59
2023-05-24T17:01:35.475Z,100556.06
2023-05-24T17:04:06.471Z,100564.69
2023-05-24T17:06:39.734Z,100557.91
2023-05-24T17:09:09.257Z,100556.91
2023-05-24T17:11:42.174Z,100558.72
2023-05-24T17:14:10.857Z,100565.50
2023-05-24T17:16:45.531Z,100559.94
2023-05-24T17:19:16.653Z,100564.09
2023-05-24T17:21:48.469Z,100553.94
2023-05-24T17:24:18.253Z,100555.69
2023-05-24T17:26:46.692Z,100554.81
2023-05-24T17:29:15.414Z,100557.66
2023-05-24T17:31:45.447Z,100556.34
2023-05-24T17:34:15.105Z,100569.66
2023-05-24T17:36:44.110Z,100569.63
2023-05-24T17:39:17.876Z,100565.81
2023-05-24T17:41:47.383Z,100577.44
2023-05-24T17:44:19.662Z,100582.88
2023-05-24T17:46:51.770Z,100577.16
2023-05-24T17:49:21.842Z,100577.53
2023-05-24T17:51:53.990Z,100574.59
2023-05-24T17:54:28.287Z,100583.69
2023-05-24T17:57:12.305Z,100566.47
2023-05-24T17:59:45.266Z,100572.47
2023-05-24T18:02:18.966Z,100574.75
2023-05-24T18:04:50.953Z,100580.63
2023-05-24T18:07:19.760Z,100574.72
2023-05-24T18:09:51.838Z,100575.63
2023-05-24T18:12:21.919Z,100581.28
2023-05-24T18:14:52.103Z,100575.44
2023-05-24T18:17:30.176Z,100585.97
2023-05-24T18:20:00.611Z,100586.25
2023-05-24T18:22:33.295Z,100585.97
2023-05-24T18:25:04.825Z,100585.94
2023-05-24T18:27:36.139Z,100591.03
2023-05-24T18:30:09.025Z,100591.94
2023-05-24T18:32:52.096Z,100586.38
2023-05-24T18:35:29.762Z,100582.34
2023-05-24T18:37:58.155Z,100595.13
2023-05-24T18:40:31.945Z,100579.34
2023-05-24T18:43:01.606Z,100581.28
2023-05-24T18:45:33.753Z,100589.28
2023-05-24T18:48:04.435Z,100580.06
2023-05-24T18:50:34.951Z,100591.69
2023-05-24T18:53:07.512Z,100581.69
2023-05-24T18:55:41.048Z,100585.88
2023-05-24T18:58:11.395Z,100589.47
2023-05-24T19:00:46.718Z,100589.34
2023-05-24T19:03:17.081Z,100596.50
2023-05-24T19:05:45.745Z,100596.66
2023-05-24T19:08:15.143Z,100595.72
2023-05-24T19:11:00.138Z,100605.88
2023-05-24T19:13:29.672Z,100605.94
2023-05-24T19:16:04.786Z,100614.88
2023-05-24T19:18:33.164Z,100619.31
2023-05-24T19:21:10.469Z,100610.16
2023-05-24T19:26:37.785Z,100620.16
2023-05-24T19:29:14.362Z,100619.06
2023-05-24T19:31:55.206Z,100623.25
2023-05-24T19:34:35.314Z,100632.19
2023-05-24T19:37:11.124Z,100634.81
2023-05-24T19:39:41.805Z,100641.22
2023-05-24T19:42:20.085Z,100643.38
2023-05-24T19:47:44.841Z,100645.34
2023-05-24T19:50:17.730Z,100650.00
2023-05-24T19:52:46.482Z,100650.38
2023-05-24T19:55:18.790Z,100657.47
2023-05-24T19:57:51.594Z,100648.53
2023-05-24T20:00:22.971Z,100658.31
2023-05-24T20:02:59.269Z,100661.16
2023-05-24T20:08:36.250Z,100667.22
2023-05-24T20:11:09.039Z,100674.38
2023-05-24T20:14:02.492Z,100669.69
2023-05-24T20:17:01.528Z,100673.06
2023-05-24T20:22:19.660Z,100669.75
2023-05-24T20:25:03.028Z,100674.50
2023-05-24T20:27:31.976Z,100671.97
2023-05-24T20:30:06.895Z,100675.19
2023-05-24T20:32:38.054Z,100676.41
2023-05-24T20:35:11.452Z,100683.69
2023-05-24T20:37:43.784Z,100684.03
2023-05-24T20:40:16.003Z,100683.03
2023-05-24T20:42:44.221Z,100685.72
2023-05-24T20:45:18.340Z,100684.13
2023-05-24T20:47:48.455Z,100687.00
2023-05-24T20:56:18.696Z,100686.91
2023-05-24T20:58:53.352Z,100682.91
2023-05-24T21:01:24.818Z,100678.88
2023-05-24T21:03:53.186Z,100688.28
2023-05-24T21:06:46.815Z,100683.56
2023-05-24T21:09:17.401Z,100684.31
2023-05-24T21:11:47.181Z,100682.22
2023-05-24T21:14:17.128Z,100684.63
2023-05-24T21:16:49.641Z,100681.78
2023-05-24T21:19:18.274Z,100682.50
2023-05-24T21:21:47.868Z,100683.47
2023-05-24T21:24:18.586Z,100687.72
2023-05-24T21:26:46.733Z,100693.47
2023-05-24T21:29:15.904Z,100689.31
2023-05-24T21:31:43.924Z,100697.44
2023-05-24T21:34:13.480Z,100685.28
2023-05-24T21:36:41.675Z,100687.00
2023-05-24T21:39:09.969Z,100687.00
2023-05-24T21:41:41.776Z,100686.56
2023-05-24T21:44:12.221Z,100686.53
2023-05-24T21:46:46.783Z,100697.13
2023-05-24T21:49:17.211Z,100695.91
2023-05-24T21:51:47.577Z,100696.69
2023-05-24T21:54:19.564Z,100690.91
2023-05-24T21:56:55.570Z,100700.19
2023-05-24T21:59:24.829Z,100702.19
2023-05-24T22:01:53.021Z,100699.03
2023-05-24T22:04:26.029Z,100704.16
2023-05-24T22:06:55.244Z,100707.78
2023-05-24T22:09:25.745Z,100707.13
2023-05-24T22:11:53.905Z,100716.66
2023-05-24T22:14:32.781Z,100704.06
2023-05-24T22:17:01.012Z,100708.31
2023-05-24T22:19:39.465Z,100713.44
2023-05-24T22:22:07.774Z,100711.13
2023-05-24T22:24:36.061Z,100700.69
2023-05-24T22:27:04.781Z,100712.13
2023-05-24T22:29:32.990Z,100709.47
2023-05-24T22:32:01.642Z,100706.09
2023-05-24T22:34:31.309Z,100706.41
2023-05-24T22:37:00.250Z,100705.72
2023-05-24T22:39:32.500Z,100715.03
2023-05-24T22:42:01.845Z,100706.88
2023-05-24T22:44:29.875Z,100711.53
2023-05-24T22:47:02.502Z,100709.63
2023-05-24T22:49:34.546Z,100711.97
2023-05-24T22:52:03.498Z,100713.78
2023-05-24T22:54:32.840Z,100710.66
2023-05-24T22:57:02.830Z,100722.78
2023-05-24T22:59:32.673Z,100711.34
2023-05-24T23:02:01.200Z,100716.53
2023-05-24T23:04:30.330Z,100721.00
2023-05-24T23:07:00.121Z,100719.56
2023-05-24T23:09:34.596Z,100715.59
2023-05-24T23:12:10.552Z,100718.97
2023-05-24T23:14:48.850Z,100729.69
2023-05-24T23:17:20.496Z,100724.41
2023-05-24T23:19:50.646Z,100727.00
2023-05-24T23:22:20.494Z,100732.47
2023-05-24T23:24:50.270Z,100731.16
2023-05-24T23:27:19.516Z,100739.63
2023-05-24T23:29:48.326Z,100739.06
2023-05-24T23:32:16.600Z,100732.66
2023-05-24T23:34:47.296Z,100731.38
2023-05-24T23:37:17.195Z,100735.84
2023-05-24T23:39:47.254Z,100735.63
2023-05-24T23:42:15.644Z,100737.38
2023-05-24T23:44:43.759Z,100740.16
2023-05-24T23:47:12.702Z,100732.72
2023-05-24T23:49:41.971Z,100735.25
2023-05-24T23:52:10.762Z,100738.88
2023-05-24T23:54:40.120Z,100736.06
2023-05-24T23:57:09.719Z,100739.94
2023-05-24T23:59:37.584Z,100739.31
